Main page
METAR-TAF:

METAR-TAF

Airports :

Takhamalt Airport

Illizi, Algeria

latitude: 26-30N, longitude: 008-25E, elevation: 558 m

Current weather observation

The report was made 1 hour and 5 minutes ago, at 06:00 UTC
Wind 6 kt from the South
Temperature 17°C
Humidity 20%
Pressure 1012 hPa
Visibility: 8000 m

METAR: DAAP 080600Z 19006KT 8000 NSC 17/M06 Q1012

Time: 08:05 (07:05 UTC)

Forecast

The report was made 2 hours and 5 minutes ago, at 05:00 UTC
Forecast valid from 08 at 06 UTC to 08 at 15 UTC
Wind 8 kt from the Southeast
Visibility: 8000 m

TAF: DAAP 080500Z 0806/0815 14008KT 8000 NSC

Weather observations and forecasts of more than 4000 airports (METAR and TAF reports).

The available stations are represented by yellow and red dots on the map.

Hover mouse over dot to see the name of the station.

Then click to see weather observations and forecasts.

To change the map : click on the green buttons with a black cross to zoom in, on the green button with a dash to zoom out, or on the green arrows for adjacent maps.


METAR-TAF: